Peabody, Kentucky
Current Conditions -  °F | °C
As of 2:53 AM on Saturday 20 Dec 2014 (Local Time) from KLOZ Reporting Station
Overcast Overcast  
Wind Chill: 25°   Ceiling: 7000
Heat Index: 30°   Visibility: 10mi
Dew Point: 23°   Wind: 5mph
Humidity: 75%   Direction: 30°NNE
Pressure: 30.19"   Gusts: NA
Location:  37.1553°N, 83.623°W
Report Text: KLOZ 200753Z AUTO 03004KT 10SM BKN070 BKN090 OVC110 M01/M05 A3019 RMK AO2 SLP231 T10111050
Loading
Personal Weather Stations






























Interactive Weather Map New forecast layout! Learn more

10-Day Weather Forecast

Advertisements
Track Severe Weather on mobile